createdAt,value
2023-04-29T00:01:35.298Z,12.30
2023-04-29T00:04:03.078Z,12.20
2023-04-29T00:06:30.715Z,12.20
2023-04-29T00:08:58.513Z,12.20
2023-04-29T00:11:25.781Z,12.10
2023-04-29T00:13:53.160Z,12.10
2023-04-29T00:16:20.662Z,12.00
2023-04-29T00:18:47.954Z,12.00
2023-04-29T00:21:15.207Z,12.00
2023-04-29T00:23:42.467Z,11.90
2023-04-29T00:26:09.847Z,12.00
2023-04-29T00:28:37.164Z,12.00
2023-04-29T00:31:04.467Z,12.00
2023-04-29T00:33:31.701Z,12.00
2023-04-29T00:35:58.937Z,12.00
2023-04-29T00:38:26.142Z,12.10
2023-04-29T00:40:53.665Z,12.00
2023-04-29T00:43:21.126Z,12.00
2023-04-29T00:45:48.889Z,12.00
2023-04-29T00:48:16.104Z,12.00
2023-04-29T00:50:43.755Z,12.00
2023-04-29T00:53:14.774Z,12.00
2023-04-29T00:55:43.821Z,12.00
2023-04-29T00:58:12.130Z,11.90
2023-04-29T01:00:41.527Z,11.80
2023-04-29T01:03:09.578Z,11.80
2023-04-29T01:05:37.003Z,11.80
2023-04-29T01:08:18.406Z,11.70
2023-04-29T01:11:23.292Z,11.70
2023-04-29T01:13:54.425Z,11.60
2023-04-29T01:23:28.322Z,11.60
2023-04-29T01:25:57.697Z,11.50
2023-04-29T01:28:50.896Z,11.60
2023-04-29T01:31:23.234Z,11.60
2023-04-29T01:34:12.121Z,11.60
2023-04-29T01:36:57.392Z,11.60
2023-04-29T01:39:53.993Z,11.60
2023-04-29T01:42:46.476Z,11.60
2023-04-29T01:45:18.901Z,11.60
2023-04-29T01:47:49.328Z,11.60
2023-04-29T01:50:17.779Z,11.70
2023-04-29T01:52:45.427Z,11.70
2023-04-29T01:55:12.965Z,11.70
2023-04-29T01:57:53.604Z,11.70
2023-04-29T02:00:43.399Z,11.70
2023-04-29T02:03:12.003Z,11.70
2023-04-29T02:05:43.338Z,11.80
2023-04-29T02:08:10.539Z,11.80
2023-04-29T02:10:42.050Z,11.90
2023-04-29T02:13:20.056Z,11.90
2023-04-29T02:15:47.591Z,12.00
2023-04-29T02:18:16.295Z,12.00
2023-04-29T02:20:43.748Z,12.10
2023-04-29T02:23:11.057Z,12.30
2023-04-29T02:25:38.724Z,12.30
2023-04-29T02:28:05.998Z,12.40
2023-04-29T02:30:33.316Z,12.40
2023-04-29T02:33:00.650Z,12.40
2023-04-29T02:35:28.032Z,12.40
2023-04-29T02:37:55.290Z,12.40
2023-04-29T02:40:22.574Z,12.50
2023-04-29T02:42:49.785Z,12.40
2023-04-29T02:45:17.402Z,12.40
2023-04-29T02:47:45.332Z,12.40
2023-04-29T02:50:12.542Z,12.40
2023-04-29T02:52:41.819Z,12.40
2023-04-29T02:55:09.479Z,12.40
2023-04-29T02:57:36.669Z,12.40
2023-04-29T03:00:04.177Z,12.30
2023-04-29T03:02:31.476Z,12.40
2023-04-29T03:04:59.802Z,12.40
2023-04-29T03:07:28.933Z,12.30
2023-04-29T03:09:56.617Z,12.40
2023-04-29T03:12:24.132Z,12.40
2023-04-29T03:14:52.105Z,12.20
2023-04-29T03:17:19.409Z,12.20
2023-04-29T03:19:46.955Z,12.20
2023-04-29T03:22:15.650Z,12.20
2023-04-29T03:24:44.439Z,12.20
2023-04-29T03:27:11.658Z,12.30
2023-04-29T03:29:38.916Z,12.20
2023-04-29T03:32:06.466Z,12.20
2023-04-29T03:34:34.344Z,12.20
2023-04-29T03:37:16.487Z,12.20
2023-04-29T03:39:46.916Z,12.20
2023-04-29T03:42:14.808Z,12.20
2023-04-29T03:44:42.097Z,12.10
2023-04-29T03:47:10.050Z,12.10
2023-04-29T03:49:37.601Z,12.10
2023-04-29T03:52:05.340Z,12.20
2023-04-29T03:54:33.066Z,12.20
2023-04-29T03:57:02.381Z,12.10
2023-04-29T03:59:30.154Z,12.10
2023-04-29T04:01:58.554Z,12.10
2023-04-29T04:04:26.389Z,12.10
2023-04-29T04:06:53.975Z,12.20
2023-04-29T04:09:25.822Z,12.20
2023-04-29T04:11:53.910Z,12.20
2023-04-29T04:14:21.571Z,12.30
2023-04-29T04:16:50.748Z,12.20
2023-04-29T04:19:18.545Z,12.20
2023-04-29T04:21:46.610Z,12.20
2023-04-29T04:24:14.097Z,12.20
2023-04-29T04:26:42.327Z,12.10
2023-04-29T04:29:21.060Z,12.20
2023-04-29T04:31:55.736Z,12.10
2023-04-29T04:34:23.681Z,12.10
2023-04-29T04:36:52.558Z,12.10
2023-04-29T04:39:19.878Z,12.10
2023-04-29T04:41:47.169Z,12.10
2023-04-29T04:44:14.550Z,12.00
2023-04-29T04:47:02.221Z,12.00
2023-04-29T04:49:44.576Z,12.00
2023-04-29T04:52:12.831Z,12.00
2023-04-29T04:54:40.061Z,12.00
2023-04-29T04:57:15.277Z,12.00
2023-04-29T04:59:43.092Z,12.00
2023-04-29T05:02:10.516Z,11.90
2023-04-29T05:04:37.755Z,11.90
2023-04-29T05:07:04.975Z,11.90
2023-04-29T05:09:43.940Z,12.00
2023-04-29T05:12:11.435Z,12.00
2023-04-29T05:14:38.794Z,12.00
2023-04-29T05:17:06.122Z,12.20
2023-04-29T05:19:33.512Z,12.30
2023-04-29T05:22:00.957Z,12.40
2023-04-29T05:24:29.625Z,12.50
2023-04-29T05:26:57.241Z,12.50
2023-04-29T05:29:27.164Z,12.40
2023-04-29T05:31:59.201Z,12.40
2023-04-29T05:34:26.527Z,12.40
2023-04-29T05:36:53.990Z,12.40
2023-04-29T05:39:21.536Z,12.30
2023-04-29T05:41:58.981Z,12.20
2023-04-29T05:44:36.675Z,12.30
2023-04-29T05:47:03.891Z,12.20
2023-04-29T05:49:31.255Z,12.20
2023-04-29T05:52:03.941Z,12.10
2023-04-29T05:54:31.363Z,12.10
2023-04-29T05:56:58.808Z,12.10
2023-04-29T05:59:26.423Z,12.00
2023-04-29T06:01:54.922Z,12.00
2023-04-29T06:04:22.553Z,12.00
2023-04-29T06:07:15.000Z,12.00
2023-04-29T06:09:58.644Z,12.00
2023-04-29T06:12:27.070Z,11.90
2023-04-29T06:14:54.742Z,12.00
2023-04-29T06:17:22.195Z,12.00
2023-04-29T06:19:49.463Z,11.90
2023-04-29T06:22:16.638Z,11.90
2023-04-29T06:24:49.911Z,11.90
2023-04-29T06:27:25.686Z,11.80
2023-04-29T06:29:53.418Z,11.90
2023-04-29T06:32:20.868Z,12.00
2023-04-29T06:34:48.200Z,12.00
2023-04-29T06:37:41.524Z,12.00
2023-04-29T06:40:31.276Z,11.90
2023-04-29T06:43:05.697Z,12.00
2023-04-29T06:45:50.004Z,12.10
2023-04-29T06:48:21.339Z,12.10
2023-04-29T06:50:53.957Z,12.10
2023-04-29T06:53:21.716Z,12.10
2023-04-29T06:55:49.055Z,12.10
2023-04-29T06:58:17.118Z,12.10
2023-04-29T07:00:49.559Z,12.10
2023-04-29T07:03:18.662Z,12.10
2023-04-29T07:05:46.286Z,12.30
2023-04-29T07:08:14.652Z,12.30
2023-04-29T07:10:41.944Z,12.40
2023-04-29T07:13:09.244Z,12.40
2023-04-29T07:15:37.385Z,12.40
2023-04-29T07:18:05.943Z,12.40
2023-04-29T07:20:33.226Z,12.20
2023-04-29T07:23:00.464Z,12.10
2023-04-29T07:25:29.381Z,12.10
2023-04-29T07:27:57.326Z,12.10
2023-04-29T07:30:25.872Z,12.00
2023-04-29T07:32:53.192Z,12.00
2023-04-29T07:35:20.821Z,11.90
2023-04-29T07:37:48.290Z,11.60
2023-04-29T07:40:15.601Z,11.60
2023-04-29T07:42:43.795Z,11.60
2023-04-29T07:45:13.800Z,11.70
2023-04-29T07:47:41.137Z,11.80
2023-04-29T07:50:08.746Z,12.00
2023-04-29T07:52:35.957Z,12.10
2023-04-29T07:55:03.368Z,12.10
2023-04-29T07:57:30.641Z,12.10
2023-04-29T07:59:57.967Z,12.10
2023-04-29T08:02:25.400Z,12.10
2023-04-29T08:04:54.651Z,12.10
2023-04-29T08:07:23.456Z,12.00
2023-04-29T08:09:52.063Z,12.00
2023-04-29T08:12:19.700Z,11.90
2023-04-29T08:14:46.900Z,11.80
2023-04-29T08:17:14.102Z,11.80
2023-04-29T08:19:41.624Z,11.60
2023-04-29T08:22:11.193Z,11.60
2023-04-29T08:24:38.405Z,11.60
2023-04-29T08:27:05.635Z,11.50
2023-04-29T08:29:33.054Z,11.60
2023-04-29T08:32:00.773Z,11.50
2023-04-29T08:34:28.290Z,11.50
2023-04-29T08:36:56.953Z,11.50
2023-04-29T08:39:24.226Z,11.50
2023-04-29T08:41:52.115Z,11.50
2023-04-29T08:44:19.396Z,11.60
2023-04-29T08:46:48.233Z,11.60
2023-04-29T08:49:15.661Z,11.60
2023-04-29T08:51:45.652Z,11.70
2023-04-29T08:54:12.943Z,11.70
2023-04-29T08:56:40.405Z,11.80
2023-04-29T08:59:10.548Z,11.80
2023-04-29T09:01:42.808Z,11.80
2023-04-29T09:04:26.175Z,11.80
2023-04-29T09:06:56.814Z,11.90
2023-04-29T09:09:27.754Z,11.90
2023-04-29T09:11:55.848Z,11.90
2023-04-29T09:14:24.442Z,11.90
2023-04-29T09:16:52.264Z,12.00
2023-04-29T09:19:30.268Z,12.00
2023-04-29T09:21:58.161Z,12.10
2023-04-29T09:24:30.195Z,12.40
2023-04-29T09:26:58.777Z,12.60
2023-04-29T09:29:26.388Z,12.80
2023-04-29T09:31:53.808Z,13.00
2023-04-29T09:34:32.363Z,13.10
2023-04-29T09:36:59.593Z,13.10
2023-04-29T09:39:27.005Z,13.10
2023-04-29T09:41:54.235Z,13.10
2023-04-29T09:44:23.526Z,13.10
2023-04-29T09:47:05.647Z,13.10
2023-04-29T09:49:38.868Z,13.10
2023-04-29T09:52:08.813Z,13.00
2023-04-29T09:54:37.021Z,12.80
2023-04-29T09:57:09.068Z,12.80
2023-04-29T09:59:39.671Z,12.90
2023-04-29T10:02:18.442Z,13.10
2023-04-29T10:04:51.838Z,13.50
2023-04-29T10:07:20.280Z,13.80
2023-04-29T10:09:48.645Z,14.10
2023-04-29T10:12:18.415Z,14.00
2023-04-29T10:15:00.189Z,13.70
2023-04-29T10:17:43.425Z,13.60
2023-04-29T10:20:14.376Z,13.50
2023-04-29T10:22:53.025Z,13.50
2023-04-29T10:25:22.239Z,13.50
2023-04-29T10:27:52.996Z,13.50
2023-04-29T10:30:21.852Z,13.50
2023-04-29T10:32:52.096Z,13.50
2023-04-29T10:35:25.548Z,13.70
2023-04-29T10:37:54.238Z,14.00
2023-04-29T10:40:42.602Z,14.20
2023-04-29T10:43:10.054Z,14.50
2023-04-29T10:45:38.464Z,14.50
2023-04-29T10:48:13.250Z,14.70
2023-04-29T10:50:49.917Z,14.90
2023-04-29T10:53:20.043Z,15.20
2023-04-29T10:55:48.372Z,15.50
2023-04-29T10:58:36.019Z,15.50
2023-04-29T11:01:04.157Z,15.40
2023-04-29T11:04:01.818Z,15.30
2023-04-29T11:06:35.226Z,15.30
2023-04-29T11:09:04.781Z,15.20
2023-04-29T11:11:58.857Z,15.20
2023-04-29T11:14:29.612Z,15.20
2023-04-29T11:17:13.955Z,15.20
2023-04-29T11:19:45.087Z,15.10
2023-04-29T11:22:18.378Z,15.20
2023-04-29T11:24:52.378Z,15.20
2023-04-29T11:27:22.923Z,15.20
2023-04-29T11:29:50.704Z,15.20
2023-04-29T11:32:22.167Z,15.30
2023-04-29T11:34:49.558Z,15.40
2023-04-29T11:37:27.188Z,15.50
2023-04-29T11:40:01.143Z,15.60
2023-04-29T11:42:28.698Z,15.80
2023-04-29T11:44:57.081Z,16.00
2023-04-29T11:47:29.511Z,16.10
2023-04-29T11:50:08.092Z,16.40
2023-04-29T11:52:37.218Z,16.40
2023-04-29T11:55:05.950Z,16.70
2023-04-29T11:57:33.412Z,16.60
2023-04-29T12:00:01.222Z,16.60
2023-04-29T12:02:33.590Z,16.60
2023-04-29T12:05:06.050Z,16.40
2023-04-29T12:07:33.508Z,16.30
2023-04-29T12:10:00.908Z,16.20
2023-04-29T12:12:29.152Z,16.10
2023-04-29T12:14:56.998Z,16.00
2023-04-29T12:17:24.721Z,16.10
2023-04-29T12:19:52.146Z,16.10
2023-04-29T12:22:20.271Z,16.00
2023-04-29T12:24:47.629Z,16.00
2023-04-29T12:27:14.826Z,15.80
2023-04-29T12:29:42.111Z,15.60
2023-04-29T12:32:16.675Z,15.50
2023-04-29T12:34:46.376Z,15.30
2023-04-29T12:37:15.077Z,15.20
2023-04-29T12:39:42.445Z,15.30
2023-04-29T12:42:18.396Z,15.40
2023-04-29T12:44:49.561Z,15.60
2023-04-29T12:47:17.537Z,15.70
2023-04-29T12:49:46.382Z,15.80
2023-04-29T12:52:13.769Z,15.80
2023-04-29T12:54:44.379Z,15.70
2023-04-29T12:57:12.449Z,15.60
2023-04-29T12:59:41.356Z,15.60
2023-04-29T13:02:09.003Z,15.50
2023-04-29T13:04:36.390Z,15.50
2023-04-29T13:07:04.760Z,15.60
2023-04-29T13:09:32.130Z,15.80
2023-04-29T13:11:59.746Z,15.90
2023-04-29T13:14:27.590Z,15.80
2023-04-29T13:16:54.903Z,15.80
2023-04-29T13:21:53.011Z,15.60
2023-04-29T13:24:21.040Z,15.50
2023-04-29T13:26:50.933Z,15.40
2023-04-29T13:29:19.744Z,15.30
2023-04-29T13:31:47.019Z,15.30
2023-04-29T13:34:14.299Z,15.20
2023-04-29T13:36:41.573Z,15.30
2023-04-29T13:39:08.885Z,15.30
2023-04-29T13:41:36.345Z,15.40
2023-04-29T13:44:06.046Z,15.50
2023-04-29T13:46:38.412Z,15.90
2023-04-29T13:49:29.208Z,16.20
2023-04-29T13:52:47.276Z,16.40
2023-04-29T13:54:58.932Z,16.30
2023-04-29T13:58:16.840Z,16.20
2023-04-29T14:00:38.103Z,16.10
2023-04-29T14:03:03.562Z,16.10
2023-04-29T14:05:31.280Z,16.20
2023-04-29T14:07:58.647Z,16.50
2023-04-29T14:10:26.079Z,17.10
2023-04-29T14:12:53.309Z,17.30
2023-04-29T14:15:20.732Z,17.10
2023-04-29T14:17:50.155Z,17.00
2023-04-29T14:20:17.561Z,16.70
2023-04-29T14:22:44.753Z,16.50
2023-04-29T14:25:13.474Z,16.30
2023-04-29T14:27:40.728Z,16.10
2023-04-29T14:30:08.858Z,16.10
2023-04-29T14:32:36.155Z,16.10
2023-04-29T14:35:03.523Z,16.00
2023-04-29T14:37:30.751Z,16.00
2023-04-29T14:39:58.026Z,16.00
2023-04-29T14:42:25.501Z,15.90
2023-04-29T14:44:54.256Z,15.80
2023-04-29T14:47:21.884Z,15.70
2023-04-29T14:49:49.113Z,15.70
2023-04-29T14:52:16.574Z,15.80
2023-04-29T14:54:43.893Z,15.90
2023-04-29T14:57:11.121Z,15.90
2023-04-29T14:59:38.333Z,15.90
2023-04-29T15:02:06.063Z,15.80
2023-04-29T15:04:34.047Z,15.70
2023-04-29T15:07:04.081Z,15.60
2023-04-29T15:09:32.096Z,15.60
2023-04-29T15:11:59.292Z,15.50
2023-04-29T15:14:26.509Z,15.60
2023-04-29T15:16:53.850Z,15.70
2023-04-29T15:19:21.064Z,15.80
2023-04-29T15:21:48.276Z,15.80
2023-04-29T15:24:15.507Z,15.80
2023-04-29T15:26:42.826Z,15.70
2023-04-29T15:29:11.314Z,15.60
2023-04-29T15:31:38.948Z,15.50
2023-04-29T15:34:06.540Z,15.60
2023-04-29T15:36:34.582Z,15.50
2023-04-29T15:39:01.901Z,15.50
2023-04-29T15:41:29.122Z,15.60
2023-04-29T15:43:59.510Z,15.60
2023-04-29T15:46:27.893Z,15.60
2023-04-29T15:48:55.274Z,15.50
2023-04-29T15:51:22.649Z,15.40
2023-04-29T15:53:50.950Z,15.30
2023-04-29T15:56:18.294Z,15.40
2023-04-29T15:58:45.534Z,15.30
2023-04-29T16:01:12.760Z,15.30
2023-04-29T16:03:40.046Z,15.40
2023-04-29T16:06:07.556Z,15.50
2023-04-29T16:08:34.850Z,15.60
2023-04-29T16:11:03.122Z,15.70
2023-04-29T16:13:30.428Z,15.80
2023-04-29T16:15:57.683Z,16.00
2023-04-29T16:18:24.876Z,16.00
2023-04-29T16:20:52.174Z,15.90
2023-04-29T16:23:19.381Z,15.80
2023-04-29T16:25:46.637Z,15.60
2023-04-29T16:28:13.836Z,15.60
2023-04-29T16:30:41.603Z,15.50
2023-04-29T16:33:09.209Z,15.40
2023-04-29T16:35:37.147Z,15.30
2023-04-29T16:38:04.369Z,15.30
2023-04-29T16:40:31.631Z,15.20
2023-04-29T16:42:58.897Z,15.30
2023-04-29T16:45:26.332Z,15.20
2023-04-29T16:47:54.627Z,15.30
2023-04-29T16:50:22.044Z,15.30
2023-04-29T16:52:49.221Z,15.30
2023-04-29T16:55:16.686Z,15.30
2023-04-29T16:57:43.935Z,15.30
2023-04-29T17:00:12.084Z,15.10
2023-04-29T17:02:42.940Z,15.20
2023-04-29T17:05:10.930Z,15.10
2023-04-29T17:07:38.669Z,15.00
2023-04-29T17:10:07.141Z,15.10
2023-04-29T17:12:34.588Z,15.10
2023-04-29T17:15:01.878Z,15.10
2023-04-29T17:17:29.330Z,15.10
2023-04-29T17:19:56.904Z,15.00
2023-04-29T17:22:24.370Z,15.00
2023-04-29T17:24:51.640Z,15.00
2023-04-29T17:27:18.865Z,14.90
2023-04-29T17:29:46.184Z,14.90
2023-04-29T17:32:17.165Z,14.80
2023-04-29T17:34:44.522Z,14.80
2023-04-29T17:37:11.763Z,14.70
2023-04-29T17:39:39.140Z,14.60
2023-04-29T17:42:07.461Z,14.60
2023-04-29T17:44:36.771Z,14.60
2023-04-29T17:47:04.083Z,14.70
2023-04-29T17:49:31.317Z,14.70
2023-04-29T17:51:59.900Z,14.70
2023-04-29T17:54:29.080Z,14.70
2023-04-29T17:56:56.940Z,14.70
2023-04-29T17:59:25.027Z,14.60
2023-04-29T18:01:52.369Z,14.30
2023-04-29T18:04:19.736Z,14.40
2023-04-29T18:06:47.021Z,14.30
2023-04-29T18:09:15.443Z,14.30
2023-04-29T18:11:42.742Z,14.20
2023-04-29T18:14:10.252Z,14.10
2023-04-29T18:16:38.103Z,14.10
2023-04-29T18:19:05.378Z,14.00
2023-04-29T18:21:32.822Z,13.90
2023-04-29T18:24:00.280Z,13.80
2023-04-29T18:26:28.577Z,13.80
2023-04-29T18:28:55.906Z,13.70
2023-04-29T18:31:25.182Z,13.70
2023-04-29T18:33:52.450Z,13.70
2023-04-29T18:36:21.269Z,13.60
2023-04-29T18:38:48.576Z,13.60
2023-04-29T18:41:15.748Z,13.50
2023-04-29T18:43:43.042Z,13.50
2023-04-29T18:46:10.451Z,13.50
2023-04-29T18:48:40.180Z,13.50
2023-04-29T18:51:07.569Z,13.50
2023-04-29T18:53:34.942Z,13.50
2023-04-29T18:56:03.245Z,13.40
2023-04-29T18:58:30.493Z,13.50
2023-04-29T19:00:59.902Z,13.40
2023-04-29T19:03:27.924Z,13.30
2023-04-29T19:05:55.227Z,13.20
2023-04-29T19:08:22.482Z,13.10
2023-04-29T19:10:49.806Z,12.80
2023-04-29T19:13:17.119Z,12.80
2023-04-29T19:15:44.449Z,12.70
2023-04-29T19:18:11.835Z,12.40
2023-04-29T19:20:40.901Z,12.30
2023-04-29T19:23:08.062Z,12.30
2023-04-29T19:25:35.250Z,12.20
2023-04-29T19:28:02.692Z,12.10
2023-04-29T19:30:29.933Z,12.10
2023-04-29T19:32:57.153Z,12.10
2023-04-29T19:35:24.465Z,12.10
2023-04-29T19:37:53.166Z,12.00
2023-04-29T19:40:20.506Z,12.00
2023-04-29T19:42:47.729Z,12.00
2023-04-29T19:45:15.043Z,12.00
2023-04-29T19:47:42.324Z,11.80
2023-04-29T19:50:09.749Z,11.70
2023-04-29T19:52:37.228Z,11.60
2023-04-29T19:55:04.932Z,11.60
2023-04-29T19:57:33.069Z,11.50
2023-04-29T20:00:00.340Z,11.40
2023-04-29T20:02:27.886Z,11.30
2023-04-29T20:04:55.895Z,11.20
2023-04-29T20:07:23.126Z,11.10
2023-04-29T20:09:50.469Z,11.10
2023-04-29T20:12:17.867Z,11.00
2023-04-29T20:14:45.143Z,10.80
2023-04-29T20:17:13.453Z,10.80
2023-04-29T20:19:40.760Z,10.60
2023-04-29T20:22:08.023Z,10.60
2023-04-29T20:24:35.297Z,10.50
2023-04-29T20:27:03.730Z,10.50
2023-04-29T20:29:30.931Z,10.40
2023-04-29T20:31:58.305Z,10.40
2023-04-29T20:34:26.449Z,10.40
2023-04-29T20:36:53.893Z,10.30
2023-04-29T20:39:21.240Z,10.30
2023-04-29T20:41:48.467Z,10.30
2023-04-29T20:44:17.947Z,10.20
2023-04-29T20:46:46.850Z,10.10
2023-04-29T20:49:15.283Z,10.10
2023-04-29T20:51:42.976Z,10.00
2023-04-29T20:54:11.032Z,9.90
2023-04-29T20:56:38.268Z,9.90
2023-04-29T20:59:05.760Z,9.80
2023-04-29T21:01:33.656Z,9.70
2023-04-29T21:04:02.738Z,9.70
2023-04-29T21:06:30.057Z,9.60
2023-04-29T21:08:57.464Z,9.60
2023-04-29T21:11:25.469Z,9.60
2023-04-29T21:13:54.553Z,9.60
2023-04-29T21:16:22.460Z,9.50
2023-04-29T21:18:49.713Z,9.50
2023-04-29T21:21:19.378Z,9.50
2023-04-29T21:23:50.780Z,9.50
2023-04-29T21:26:18.252Z,9.40
2023-04-29T21:28:46.389Z,9.40
2023-04-29T21:31:17.281Z,9.40
2023-04-29T21:33:48.376Z,9.30
2023-04-29T21:36:16.440Z,9.30
2023-04-29T21:38:43.726Z,9.20
2023-04-29T21:41:20.826Z,9.10
2023-04-29T21:43:48.834Z,9.00
2023-04-29T21:46:16.805Z,8.80
2023-04-29T21:48:44.521Z,8.80
2023-04-29T21:51:12.192Z,8.70
2023-04-29T21:53:39.617Z,8.60
2023-04-29T21:56:07.388Z,8.60
2023-04-29T21:58:34.675Z,8.50
2023-04-29T22:01:05.401Z,8.40
2023-04-29T22:03:33.294Z,8.30
2023-04-29T22:06:01.113Z,8.20
2023-04-29T22:08:28.345Z,8.20
2023-04-29T22:10:55.711Z,8.10
2023-04-29T22:13:22.888Z,8.00
2023-04-29T22:16:05.361Z,8.00
2023-04-29T22:18:33.177Z,8.00
2023-04-29T22:21:00.745Z,7.90
2023-04-29T22:23:28.074Z,7.80
2023-04-29T22:25:55.759Z,7.80
2023-04-29T22:28:23.520Z,7.70
2023-04-29T22:30:52.163Z,7.60
2023-04-29T22:33:19.354Z,7.50
2023-04-29T22:35:46.697Z,7.50
2023-04-29T22:38:13.869Z,7.40
2023-04-29T22:40:41.107Z,7.30
2023-04-29T22:43:08.297Z,7.20
2023-04-29T22:45:35.995Z,7.20
2023-04-29T22:48:03.384Z,7.10
2023-04-29T22:50:30.700Z,7.10
2023-04-29T22:52:58.086Z,7.10
2023-04-29T22:55:25.477Z,7.10
2023-04-29T22:57:52.749Z,7.10
2023-04-29T23:00:20.258Z,7.00
2023-04-29T23:02:47.916Z,6.80
2023-04-29T23:05:15.437Z,6.80
2023-04-29T23:07:43.108Z,6.70
2023-04-29T23:10:11.130Z,6.60
2023-04-29T23:12:38.487Z,6.60
2023-04-29T23:15:06.647Z,6.50
2023-04-29T23:17:37.415Z,6.40
2023-04-29T23:20:05.186Z,6.40
2023-04-29T23:22:32.412Z,6.30
2023-04-29T23:24:59.579Z,6.30
2023-04-29T23:27:26.917Z,6.30
2023-04-29T23:29:54.436Z,6.30
2023-04-29T23:32:25.171Z,6.30
2023-04-29T23:34:53.896Z,6.30
2023-04-29T23:37:21.141Z,6.40
2023-04-29T23:39:48.372Z,6.50
2023-04-29T23:42:16.211Z,6.50
2023-04-29T23:44:43.752Z,6.50
2023-04-29T23:47:11.542Z,6.50
2023-04-29T23:49:38.744Z,6.50
2023-04-29T23:52:07.698Z,6.50
2023-04-29T23:54:34.899Z,6.50
2023-04-29T23:57:02.710Z,6.50
2023-04-29T23:59:29.993Z,6.40
